Aérodrome :
LOGIN :

S'inscrire | Disclaimer

   EN    FR    IT 

 










Légende :    VFR   VFR Marginal   IFR   IFR Intensif   IFR Très Intensif
Visi : 
Plafond : 
>= 8 km
>= 3000ft
5 à 8 km
1000 à 3000 ft
1500m à 5 km
500 à 1000 ft
800 à 1500m
200 à 500 ft
< 800m
< 200 ft
Symboles :   Orages  Brouillard  Fortes neiges  Fortes précipitations  Vent > 20 kt
SIGMETs :   Divers  Orages  Givrage  Turbulence  Onde Orograph.  Cendres Volcan.






- Altitude de l'aérodrome : 755 ft
- Code IATA : DRS


EDDC - Dresden Klotzsche

DERNIER METAR :
  • 211620Z 27007KT 230V320 9999 FEW046 06/M02 Q1025 NOSIG

METARs EXPIRÉS :
  • 211550Z 27008KT 240V300 9999 BKN048 06/M01 Q1025 NOSIG
  • 211520Z 27012KT 240V310 9999 SCT040 06/M02 Q1025 NOSIG
  • 211450Z 27012KT 240V330 9999 SCT036 07/M01 Q1024 NOSIG
  • 211420Z 28011KT 240V310 9999 SCT034 06/M01 Q1024 TEMPO 29015G25KT
  • 211350Z 28013KT 230V320 9999 SCT034 06/M01 Q1024 TEMPO 28015G25KT

TAF TAF EDDC
Valide du 21 à 12h jusqu'au 22 à 12h UTC


211100Z 2112/2212 27015G25KT 9999 SCT035
BECMG 2114/2117 23013KT
BECMG 2206/2209 23015G25KT



MET'MAP, la Météo Aéronautique d'un coup d'oeil ! - Copyright ORBIFLY Décembre 2007 - Disclaimer

ORBIFLY MET'MAP TEAM :

Programmation & Développement : Alexandra Zaïnal
Sur une idée originale de : Baudouin d'Aumeries
Assistance à la programmation : Marc-Olivier Méhu
Soutien technique & logistique : Manuel Goepfert

Contact : metmap@orbifly.com




SOURCES & CREDITS :

   NOAA